sensor_id;sensor_type;location;lat;lon;timestamp;temperature;humidity
4433;DHT22;2229;48.708;9.706;2023-07-29T00:00:54;18.00;99.90
4433;DHT22;2229;48.708;9.706;2023-07-29T00:03:23;18.00;99.90
4433;DHT22;2229;48.708;9.706;2023-07-29T00:05:51;18.00;99.90
4433;DHT22;2229;48.708;9.706;2023-07-29T00:08:19;17.90;99.90
4433;DHT22;2229;48.708;9.706;2023-07-29T00:10:46;17.90;99.90
4433;DHT22;2229;48.708;9.706;2023-07-29T00:13:14;17.90;99.90
4433;DHT22;2229;48.708;9.706;2023-07-29T00:15:41;17.90;99.90
4433;DHT22;2229;48.708;9.706;2023-07-29T00:18:09;17.90;99.90
4433;DHT22;2229;48.708;9.706;2023-07-29T00:20:37;17.90;99.90
4433;DHT22;2229;48.708;9.706;2023-07-29T00:23:04;17.90;99.90
4433;DHT22;2229;48.708;9.706;2023-07-29T00:25:32;17.90;99.90
4433;DHT22;2229;48.708;9.706;2023-07-29T00:27:59;17.90;99.90
4433;DHT22;2229;48.708;9.706;2023-07-29T00:30:27;17.80;99.90
4433;DHT22;2229;48.708;9.706;2023-07-29T00:32:55;17.80;99.90
4433;DHT22;2229;48.708;9.706;2023-07-29T00:35:22;17.80;99.90
4433;DHT22;2229;48.708;9.706;2023-07-29T00:37:50;17.70;99.90
4433;DHT22;2229;48.708;9.706;2023-07-29T00:40:20;17.70;99.90
4433;DHT22;2229;48.708;9.706;2023-07-29T00:42:48;17.70;99.90
4433;DHT22;2229;48.708;9.706;2023-07-29T00:45:16;17.60;99.90
4433;DHT22;2229;48.708;9.706;2023-07-29T00:47:44;17.60;99.90
4433;DHT22;2229;48.708;9.706;2023-07-29T00:50:13;17.60;99.90
4433;DHT22;2229;48.708;9.706;2023-07-29T00:52:41;17.60;99.90
4433;DHT22;2229;48.708;9.706;2023-07-29T00:55:10;17.60;99.90
4433;DHT22;2229;48.708;9.706;2023-07-29T00:57:37;17.60;99.90
4433;DHT22;2229;48.708;9.706;2023-07-29T01:00:06;17.60;99.90
4433;DHT22;2229;48.708;9.706;2023-07-29T01:02:35;17.60;99.90
4433;DHT22;2229;48.708;9.706;2023-07-29T01:05:03;17.60;99.90
4433;DHT22;2229;48.708;9.706;2023-07-29T01:07:33;17.60;99.90
4433;DHT22;2229;48.708;9.706;2023-07-29T01:10:05;17.70;99.90
4433;DHT22;2229;48.708;9.706;2023-07-29T01:12:42;17.70;99.90
4433;DHT22;2229;48.708;9.706;2023-07-29T01:15:16;17.70;99.90
4433;DHT22;2229;48.708;9.706;2023-07-29T01:17:48;17.70;99.90
4433;DHT22;2229;48.708;9.706;2023-07-29T01:20:17;17.70;99.90
4433;DHT22;2229;48.708;9.706;2023-07-29T01:22:46;17.70;99.90
4433;DHT22;2229;48.708;9.706;2023-07-29T01:25:15;17.70;99.90
4433;DHT22;2229;48.708;9.706;2023-07-29T01:27:43;17.70;99.90
4433;DHT22;2229;48.708;9.706;2023-07-29T01:30:10;17.70;99.90
4433;DHT22;2229;48.708;9.706;2023-07-29T01:32:41;17.70;99.90
4433;DHT22;2229;48.708;9.706;2023-07-29T01:35:19;17.70;99.90
4433;DHT22;2229;48.708;9.706;2023-07-29T01:37:53;17.80;99.90
4433;DHT22;2229;48.708;9.706;2023-07-29T01:40:27;17.80;99.90
4433;DHT22;2229;48.708;9.706;2023-07-29T01:42:54;17.80;99.90
4433;DHT22;2229;48.708;9.706;2023-07-29T01:45:24;17.80;99.90
4433;DHT22;2229;48.708;9.706;2023-07-29T01:47:51;17.70;99.90
4433;DHT22;2229;48.708;9.706;2023-07-29T01:50:19;17.70;99.90
4433;DHT22;2229;48.708;9.706;2023-07-29T01:52:46;17.80;99.90
4433;DHT22;2229;48.708;9.706;2023-07-29T01:55:14;17.70;99.90
4433;DHT22;2229;48.708;9.706;2023-07-29T01:57:42;17.80;99.90
4433;DHT22;2229;48.708;9.706;2023-07-29T02:00:11;17.80;99.90
4433;DHT22;2229;48.708;9.706;2023-07-29T02:02:41;17.80;99.90
4433;DHT22;2229;48.708;9.706;2023-07-29T02:05:10;17.80;99.90
4433;DHT22;2229;48.708;9.706;2023-07-29T02:07:37;17.80;99.90
4433;DHT22;2229;48.708;9.706;2023-07-29T02:10:05;17.80;99.90
4433;DHT22;2229;48.708;9.706;2023-07-29T02:12:32;17.90;99.90
4433;DHT22;2229;48.708;9.706;2023-07-29T02:15:02;17.90;99.90
4433;DHT22;2229;48.708;9.706;2023-07-29T02:17:30;17.90;99.90
4433;DHT22;2229;48.708;9.706;2023-07-29T02:19:58;17.90;99.90
4433;DHT22;2229;48.708;9.706;2023-07-29T02:22:25;17.90;99.90
4433;DHT22;2229;48.708;9.706;2023-07-29T02:24:52;17.90;99.90
4433;DHT22;2229;48.708;9.706;2023-07-29T02:27:20;17.90;99.90
4433;DHT22;2229;48.708;9.706;2023-07-29T02:29:47;17.90;99.90
4433;DHT22;2229;48.708;9.706;2023-07-29T02:32:17;17.90;99.90
4433;DHT22;2229;48.708;9.706;2023-07-29T02:34:45;17.90;99.90
4433;DHT22;2229;48.708;9.706;2023-07-29T02:37:12;17.90;99.90
4433;DHT22;2229;48.708;9.706;2023-07-29T02:39:41;17.90;99.90
4433;DHT22;2229;48.708;9.706;2023-07-29T02:42:09;17.90;99.90
4433;DHT22;2229;48.708;9.706;2023-07-29T02:44:36;17.90;99.90
4433;DHT22;2229;48.708;9.706;2023-07-29T02:47:05;17.90;99.90
4433;DHT22;2229;48.708;9.706;2023-07-29T02:49:33;17.90;99.90
4433;DHT22;2229;48.708;9.706;2023-07-29T02:52:00;17.90;99.90
4433;DHT22;2229;48.708;9.706;2023-07-29T02:54:27;17.90;99.90
4433;DHT22;2229;48.708;9.706;2023-07-29T02:56:55;17.80;99.90
4433;DHT22;2229;48.708;9.706;2023-07-29T02:59:22;17.80;99.90
4433;DHT22;2229;48.708;9.706;2023-07-29T03:01:50;17.80;99.90
4433;DHT22;2229;48.708;9.706;2023-07-29T03:04:17;17.80;99.90
4433;DHT22;2229;48.708;9.706;2023-07-29T03:06:46;17.70;99.90
4433;DHT22;2229;48.708;9.706;2023-07-29T03:09:14;17.70;99.90
4433;DHT22;2229;48.708;9.706;2023-07-29T03:11:41;17.70;99.90
4433;DHT22;2229;48.708;9.706;2023-07-29T03:14:08;17.70;99.90
4433;DHT22;2229;48.708;9.706;2023-07-29T03:16:36;17.70;99.90
4433;DHT22;2229;48.708;9.706;2023-07-29T03:19:03;17.70;99.90
4433;DHT22;2229;48.708;9.706;2023-07-29T03:21:32;17.70;99.90
4433;DHT22;2229;48.708;9.706;2023-07-29T03:24:01;17.70;99.90
4433;DHT22;2229;48.708;9.706;2023-07-29T03:26:28;17.60;99.90
4433;DHT22;2229;48.708;9.706;2023-07-29T03:28:55;17.70;99.90
4433;DHT22;2229;48.708;9.706;2023-07-29T03:31:22;17.70;99.90
4433;DHT22;2229;48.708;9.706;2023-07-29T03:33:49;17.70;99.90
4433;DHT22;2229;48.708;9.706;2023-07-29T03:36:18;17.70;99.90
4433;DHT22;2229;48.708;9.706;2023-07-29T03:38:45;17.70;99.90
4433;DHT22;2229;48.708;9.706;2023-07-29T03:41:14;17.70;99.90
4433;DHT22;2229;48.708;9.706;2023-07-29T03:43:41;17.70;99.90
4433;DHT22;2229;48.708;9.706;2023-07-29T03:46:09;17.70;99.90
4433;DHT22;2229;48.708;9.706;2023-07-29T03:48:36;17.70;99.90
4433;DHT22;2229;48.708;9.706;2023-07-29T03:51:04;17.70;99.90
4433;DHT22;2229;48.708;9.706;2023-07-29T03:53:31;17.70;99.90
4433;DHT22;2229;48.708;9.706;2023-07-29T03:55:58;17.70;99.90
4433;DHT22;2229;48.708;9.706;2023-07-29T03:58:27;17.80;99.90
4433;DHT22;2229;48.708;9.706;2023-07-29T04:00:54;17.80;99.90
4433;DHT22;2229;48.708;9.706;2023-07-29T04:03:21;17.80;99.90
4433;DHT22;2229;48.708;9.706;2023-07-29T04:05:51;17.80;99.90
4433;DHT22;2229;48.708;9.706;2023-07-29T04:08:19;17.80;99.90
4433;DHT22;2229;48.708;9.706;2023-07-29T04:10:46;17.80;99.90
4433;DHT22;2229;48.708;9.706;2023-07-29T04:13:14;17.80;99.90
4433;DHT22;2229;48.708;9.706;2023-07-29T04:15:43;17.80;99.90
4433;DHT22;2229;48.708;9.706;2023-07-29T04:18:10;17.90;99.90
4433;DHT22;2229;48.708;9.706;2023-07-29T04:20:37;17.90;99.90
4433;DHT22;2229;48.708;9.706;2023-07-29T04:23:05;18.00;99.90
4433;DHT22;2229;48.708;9.706;2023-07-29T04:25:33;18.00;99.90
4433;DHT22;2229;48.708;9.706;2023-07-29T04:28:00;18.00;99.90
4433;DHT22;2229;48.708;9.706;2023-07-29T04:30:29;18.00;99.90
4433;DHT22;2229;48.708;9.706;2023-07-29T04:32:57;18.10;99.90
4433;DHT22;2229;48.708;9.706;2023-07-29T04:35:24;18.00;99.90
4433;DHT22;2229;48.708;9.706;2023-07-29T04:37:52;18.00;99.90
4433;DHT22;2229;48.708;9.706;2023-07-29T04:40:19;18.10;99.90
4433;DHT22;2229;48.708;9.706;2023-07-29T04:42:46;18.10;99.90
4433;DHT22;2229;48.708;9.706;2023-07-29T04:45:14;18.10;99.90
4433;DHT22;2229;48.708;9.706;2023-07-29T04:47:42;18.10;99.90
4433;DHT22;2229;48.708;9.706;2023-07-29T04:50:10;18.10;99.90
4433;DHT22;2229;48.708;9.706;2023-07-29T04:52:37;18.10;99.90
4433;DHT22;2229;48.708;9.706;2023-07-29T04:55:05;18.10;99.90
4433;DHT22;2229;48.708;9.706;2023-07-29T04:57:32;18.10;99.90
4433;DHT22;2229;48.708;9.706;2023-07-29T05:00:02;18.20;99.90
4433;DHT22;2229;48.708;9.706;2023-07-29T05:02:29;18.20;99.90
4433;DHT22;2229;48.708;9.706;2023-07-29T05:04:57;18.30;99.90
4433;DHT22;2229;48.708;9.706;2023-07-29T05:07:25;18.40;99.90
4433;DHT22;2229;48.708;9.706;2023-07-29T05:09:53;18.40;99.90
4433;DHT22;2229;48.708;9.706;2023-07-29T05:12:21;18.50;99.90
4433;DHT22;2229;48.708;9.706;2023-07-29T05:14:49;18.60;99.90
4433;DHT22;2229;48.708;9.706;2023-07-29T05:17:16;18.60;99.90
4433;DHT22;2229;48.708;9.706;2023-07-29T05:19:43;18.70;99.90
4433;DHT22;2229;48.708;9.706;2023-07-29T05:22:10;18.70;99.90
4433;DHT22;2229;48.708;9.706;2023-07-29T05:24:39;18.70;99.90
4433;DHT22;2229;48.708;9.706;2023-07-29T05:27:06;18.80;99.90
4433;DHT22;2229;48.708;9.706;2023-07-29T05:29:34;18.70;99.90
4433;DHT22;2229;48.708;9.706;2023-07-29T05:32:02;18.80;99.90
4433;DHT22;2229;48.708;9.706;2023-07-29T05:34:29;18.80;99.90
4433;DHT22;2229;48.708;9.706;2023-07-29T05:36:56;18.80;99.90
4433;DHT22;2229;48.708;9.706;2023-07-29T05:39:23;18.80;99.90
4433;DHT22;2229;48.708;9.706;2023-07-29T05:41:52;18.80;99.90
4433;DHT22;2229;48.708;9.706;2023-07-29T05:44:19;18.80;99.90
4433;DHT22;2229;48.708;9.706;2023-07-29T05:46:46;18.80;99.90
4433;DHT22;2229;48.708;9.706;2023-07-29T05:49:14;18.80;99.90
4433;DHT22;2229;48.708;9.706;2023-07-29T05:51:43;18.80;99.90
4433;DHT22;2229;48.708;9.706;2023-07-29T05:54:10;18.80;99.90
4433;DHT22;2229;48.708;9.706;2023-07-29T05:56:37;18.80;99.90
4433;DHT22;2229;48.708;9.706;2023-07-29T05:59:06;18.80;99.90
4433;DHT22;2229;48.708;9.706;2023-07-29T06:01:33;18.80;99.90
4433;DHT22;2229;48.708;9.706;2023-07-29T06:03:59;18.80;99.90
4433;DHT22;2229;48.708;9.706;2023-07-29T06:06:26;18.80;99.90
4433;DHT22;2229;48.708;9.706;2023-07-29T06:08:53;18.80;99.90
4433;DHT22;2229;48.708;9.706;2023-07-29T06:11:21;18.70;99.90
4433;DHT22;2229;48.708;9.706;2023-07-29T06:13:48;18.70;99.90
4433;DHT22;2229;48.708;9.706;2023-07-29T06:16:17;18.70;99.90
4433;DHT22;2229;48.708;9.706;2023-07-29T06:18:45;18.70;99.90
4433;DHT22;2229;48.708;9.706;2023-07-29T06:21:13;18.70;99.90
4433;DHT22;2229;48.708;9.706;2023-07-29T06:23:42;18.70;99.90
4433;DHT22;2229;48.708;9.706;2023-07-29T06:26:10;18.80;99.90
4433;DHT22;2229;48.708;9.706;2023-07-29T06:28:37;18.80;99.90
4433;DHT22;2229;48.708;9.706;2023-07-29T06:31:05;18.90;99.90
4433;DHT22;2229;48.708;9.706;2023-07-29T06:33:33;19.00;99.90
4433;DHT22;2229;48.708;9.706;2023-07-29T06:36:00;19.10;99.90
4433;DHT22;2229;48.708;9.706;2023-07-29T06:38:27;19.10;99.90
4433;DHT22;2229;48.708;9.706;2023-07-29T06:40:55;19.20;99.90
4433;DHT22;2229;48.708;9.706;2023-07-29T06:43:22;19.30;99.90
4433;DHT22;2229;48.708;9.706;2023-07-29T06:45:49;19.40;99.90
4433;DHT22;2229;48.708;9.706;2023-07-29T06:48:18;19.50;99.90
4433;DHT22;2229;48.708;9.706;2023-07-29T06:50:47;19.60;99.90
4433;DHT22;2229;48.708;9.706;2023-07-29T06:53:16;19.60;99.90
4433;DHT22;2229;48.708;9.706;2023-07-29T06:55:43;19.70;99.90
4433;DHT22;2229;48.708;9.706;2023-07-29T06:58:10;19.70;99.90
4433;DHT22;2229;48.708;9.706;2023-07-29T07:00:38;19.80;99.90
4433;DHT22;2229;48.708;9.706;2023-07-29T07:03:06;19.90;99.90
4433;DHT22;2229;48.708;9.706;2023-07-29T07:05:33;20.00;99.90
4433;DHT22;2229;48.708;9.706;2023-07-29T07:08:02;20.20;99.90
4433;DHT22;2229;48.708;9.706;2023-07-29T07:10:29;20.20;99.90
4433;DHT22;2229;48.708;9.706;2023-07-29T07:12:56;20.30;99.90
4433;DHT22;2229;48.708;9.706;2023-07-29T07:15:23;20.40;99.90
4433;DHT22;2229;48.708;9.706;2023-07-29T07:17:51;20.40;99.90
4433;DHT22;2229;48.708;9.706;2023-07-29T07:20:18;20.40;99.90
4433;DHT22;2229;48.708;9.706;2023-07-29T07:22:45;20.40;99.90
4433;DHT22;2229;48.708;9.706;2023-07-29T07:25:14;20.40;99.90
4433;DHT22;2229;48.708;9.706;2023-07-29T07:27:41;20.40;99.90
4433;DHT22;2229;48.708;9.706;2023-07-29T07:30:09;20.30;99.90
4433;DHT22;2229;48.708;9.706;2023-07-29T07:32:37;20.20;99.90
4433;DHT22;2229;48.708;9.706;2023-07-29T07:35:06;20.20;99.90
4433;DHT22;2229;48.708;9.706;2023-07-29T07:37:34;20.00;99.90
4433;DHT22;2229;48.708;9.706;2023-07-29T07:40:01;19.90;99.90
4433;DHT22;2229;48.708;9.706;2023-07-29T07:42:30;19.90;99.90
4433;DHT22;2229;48.708;9.706;2023-07-29T07:44:57;19.60;99.90
4433;DHT22;2229;48.708;9.706;2023-07-29T07:47:25;19.50;99.90
4433;DHT22;2229;48.708;9.706;2023-07-29T07:49:53;19.30;99.90
4433;DHT22;2229;48.708;9.706;2023-07-29T07:52:20;19.20;99.90
4433;DHT22;2229;48.708;9.706;2023-07-29T07:54:52;19.00;99.90
4433;DHT22;2229;48.708;9.706;2023-07-29T07:57:20;19.00;99.90
4433;DHT22;2229;48.708;9.706;2023-07-29T07:59:49;19.00;99.90
4433;DHT22;2229;48.708;9.706;2023-07-29T08:02:18;19.00;99.90
4433;DHT22;2229;48.708;9.706;2023-07-29T08:04:46;18.90;99.90
4433;DHT22;2229;48.708;9.706;2023-07-29T08:07:13;18.90;99.90
4433;DHT22;2229;48.708;9.706;2023-07-29T08:09:40;18.90;99.90
4433;DHT22;2229;48.708;9.706;2023-07-29T08:12:07;19.00;99.90
4433;DHT22;2229;48.708;9.706;2023-07-29T08:14:36;19.10;99.90
4433;DHT22;2229;48.708;9.706;2023-07-29T08:17:05;19.20;99.90
4433;DHT22;2229;48.708;9.706;2023-07-29T08:19:32;19.30;99.90
4433;DHT22;2229;48.708;9.706;2023-07-29T08:22:03;19.50;99.90
4433;DHT22;2229;48.708;9.706;2023-07-29T08:24:31;19.60;99.90
4433;DHT22;2229;48.708;9.706;2023-07-29T08:26:58;19.70;99.90
4433;DHT22;2229;48.708;9.706;2023-07-29T08:29:26;19.70;99.90
4433;DHT22;2229;48.708;9.706;2023-07-29T08:31:53;19.80;99.90
4433;DHT22;2229;48.708;9.706;2023-07-29T08:34:22;19.80;99.90
4433;DHT22;2229;48.708;9.706;2023-07-29T08:36:49;19.80;99.90
4433;DHT22;2229;48.708;9.706;2023-07-29T08:39:17;19.90;99.90
4433;DHT22;2229;48.708;9.706;2023-07-29T08:41:50;19.90;99.90
4433;DHT22;2229;48.708;9.706;2023-07-29T08:44:22;20.00;99.90
4433;DHT22;2229;48.708;9.706;2023-07-29T08:46:50;20.10;99.90
4433;DHT22;2229;48.708;9.706;2023-07-29T08:49:19;20.20;99.90
4433;DHT22;2229;48.708;9.706;2023-07-29T08:51:49;20.30;99.90
4433;DHT22;2229;48.708;9.706;2023-07-29T08:54:17;20.40;99.90
4433;DHT22;2229;48.708;9.706;2023-07-29T08:56:44;20.50;99.90
4433;DHT22;2229;48.708;9.706;2023-07-29T08:59:12;20.60;99.90
4433;DHT22;2229;48.708;9.706;2023-07-29T09:01:41;20.60;99.90
4433;DHT22;2229;48.708;9.706;2023-07-29T09:04:09;20.70;99.90
4433;DHT22;2229;48.708;9.706;2023-07-29T09:06:36;20.70;99.90
4433;DHT22;2229;48.708;9.706;2023-07-29T09:09:07;20.80;99.90
4433;DHT22;2229;48.708;9.706;2023-07-29T09:11:36;20.90;99.90
4433;DHT22;2229;48.708;9.706;2023-07-29T09:14:04;21.00;99.90
4433;DHT22;2229;48.708;9.706;2023-07-29T09:16:32;21.10;99.90
4433;DHT22;2229;48.708;9.706;2023-07-29T09:19:01;21.20;99.90
4433;DHT22;2229;48.708;9.706;2023-07-29T09:21:29;21.40;99.90
4433;DHT22;2229;48.708;9.706;2023-07-29T09:23:57;21.60;99.90
4433;DHT22;2229;48.708;9.706;2023-07-29T09:26:31;21.70;99.90
4433;DHT22;2229;48.708;9.706;2023-07-29T09:28:59;21.80;99.90
4433;DHT22;2229;48.708;9.706;2023-07-29T09:31:28;21.80;99.90
4433;DHT22;2229;48.708;9.706;2023-07-29T09:33:56;21.70;99.90
4433;DHT22;2229;48.708;9.706;2023-07-29T09:36:25;21.70;99.90
4433;DHT22;2229;48.708;9.706;2023-07-29T09:38:53;21.70;99.90
4433;DHT22;2229;48.708;9.706;2023-07-29T09:41:26;21.70;99.90
4433;DHT22;2229;48.708;9.706;2023-07-29T09:43:59;21.70;99.90
4433;DHT22;2229;48.708;9.706;2023-07-29T09:46:32;21.80;99.90
4433;DHT22;2229;48.708;9.706;2023-07-29T09:49:02;21.80;99.90
4433;DHT22;2229;48.708;9.706;2023-07-29T09:51:29;22.00;99.90
4433;DHT22;2229;48.708;9.706;2023-07-29T09:53:56;22.20;99.90
4433;DHT22;2229;48.708;9.706;2023-07-29T09:56:26;22.60;99.90
4433;DHT22;2229;48.708;9.706;2023-07-29T09:58:55;23.00;99.90
4433;DHT22;2229;48.708;9.706;2023-07-29T10:01:25;23.30;99.90
4433;DHT22;2229;48.708;9.706;2023-07-29T10:03:52;23.50;99.90
4433;DHT22;2229;48.708;9.706;2023-07-29T10:06:22;23.80;99.90
4433;DHT22;2229;48.708;9.706;2023-07-29T10:08:50;24.00;99.90
4433;DHT22;2229;48.708;9.706;2023-07-29T10:11:21;24.30;99.90
4433;DHT22;2229;48.708;9.706;2023-07-29T10:13:48;24.50;99.90
4433;DHT22;2229;48.708;9.706;2023-07-29T10:16:16;24.50;99.90
4433;DHT22;2229;48.708;9.706;2023-07-29T10:18:47;24.60;99.90
4433;DHT22;2229;48.708;9.706;2023-07-29T10:21:14;24.80;99.90
4433;DHT22;2229;48.708;9.706;2023-07-29T10:23:43;24.90;99.90
4433;DHT22;2229;48.708;9.706;2023-07-29T10:26:16;24.90;99.90
4433;DHT22;2229;48.708;9.706;2023-07-29T10:28:47;25.10;99.90
4433;DHT22;2229;48.708;9.706;2023-07-29T10:31:16;25.20;99.90
4433;DHT22;2229;48.708;9.706;2023-07-29T10:33:44;25.40;99.90
4433;DHT22;2229;48.708;9.706;2023-07-29T10:36:13;25.50;99.90
4433;DHT22;2229;48.708;9.706;2023-07-29T10:38:41;25.50;99.90
4433;DHT22;2229;48.708;9.706;2023-07-29T10:41:08;25.50;99.90
4433;DHT22;2229;48.708;9.706;2023-07-29T10:43:36;25.60;99.90
4433;DHT22;2229;48.708;9.706;2023-07-29T10:46:15;25.70;99.90
4433;DHT22;2229;48.708;9.706;2023-07-29T10:48:51;25.90;99.90
4433;DHT22;2229;48.708;9.706;2023-07-29T10:51:25;26.00;99.90
4433;DHT22;2229;48.708;9.706;2023-07-29T10:53:54;26.10;99.90
4433;DHT22;2229;48.708;9.706;2023-07-29T10:56:29;26.20;99.90
4433;DHT22;2229;48.708;9.706;2023-07-29T10:58:58;26.30;99.90
4433;DHT22;2229;48.708;9.706;2023-07-29T11:01:30;26.40;99.90
4433;DHT22;2229;48.708;9.706;2023-07-29T11:09:56;26.30;99.90
4433;DHT22;2229;48.708;9.706;2023-07-29T11:12:38;26.30;99.20
4433;DHT22;2229;48.708;9.706;2023-07-29T11:15:16;26.40;98.70
4433;DHT22;2229;48.708;9.706;2023-07-29T11:17:45;26.40;97.90
4433;DHT22;2229;48.708;9.706;2023-07-29T11:20:14;26.30;97.40
4433;DHT22;2229;48.708;9.706;2023-07-29T11:22:42;26.10;97.40
4433;DHT22;2229;48.708;9.706;2023-07-29T11:25:13;25.90;97.10
4433;DHT22;2229;48.708;9.706;2023-07-29T11:27:41;25.80;97.00
4433;DHT22;2229;48.708;9.706;2023-07-29T11:30:10;25.70;97.50
4433;DHT22;2229;48.708;9.706;2023-07-29T11:32:40;25.40;97.30
4433;DHT22;2229;48.708;9.706;2023-07-29T11:35:09;25.20;97.40
4433;DHT22;2229;48.708;9.706;2023-07-29T11:37:38;24.90;97.90
4433;DHT22;2229;48.708;9.706;2023-07-29T11:40:07;24.80;98.50
4433;DHT22;2229;48.708;9.706;2023-07-29T11:42:37;24.70;99.00
4433;DHT22;2229;48.708;9.706;2023-07-29T11:45:06;24.60;99.70
4433;DHT22;2229;48.708;9.706;2023-07-29T11:47:34;24.70;99.60
4433;DHT22;2229;48.708;9.706;2023-07-29T11:50:12;24.70;99.70
4433;DHT22;2229;48.708;9.706;2023-07-29T11:52:41;24.90;99.70
4433;DHT22;2229;48.708;9.706;2023-07-29T11:55:09;25.20;99.60
4433;DHT22;2229;48.708;9.706;2023-07-29T11:57:39;25.40;99.30
4433;DHT22;2229;48.708;9.706;2023-07-29T12:00:08;25.60;99.00
4433;DHT22;2229;48.708;9.706;2023-07-29T12:02:38;25.80;98.70
4433;DHT22;2229;48.708;9.706;2023-07-29T12:05:07;25.90;98.30
4433;DHT22;2229;48.708;9.706;2023-07-29T12:07:35;26.20;98.20
4433;DHT22;2229;48.708;9.706;2023-07-29T12:10:03;26.30;97.80
4433;DHT22;2229;48.708;9.706;2023-07-29T12:12:31;26.50;97.60
4433;DHT22;2229;48.708;9.706;2023-07-29T12:15:00;26.60;97.20
4433;DHT22;2229;48.708;9.706;2023-07-29T12:17:28;26.70;97.30
4433;DHT22;2229;48.708;9.706;2023-07-29T12:19:56;26.70;96.40
4433;DHT22;2229;48.708;9.706;2023-07-29T12:22:24;26.70;96.40
4433;DHT22;2229;48.708;9.706;2023-07-29T12:24:51;26.70;96.20
4433;DHT22;2229;48.708;9.706;2023-07-29T12:27:21;26.80;96.20
4433;DHT22;2229;48.708;9.706;2023-07-29T12:29:51;26.90;96.00
4433;DHT22;2229;48.708;9.706;2023-07-29T12:32:20;26.80;96.10
4433;DHT22;2229;48.708;9.706;2023-07-29T12:34:53;26.90;95.70
4433;DHT22;2229;48.708;9.706;2023-07-29T12:37:31;26.90;95.80
4433;DHT22;2229;48.708;9.706;2023-07-29T12:39:58;26.80;95.30
4433;DHT22;2229;48.708;9.706;2023-07-29T12:42:25;26.80;95.20
4433;DHT22;2229;48.708;9.706;2023-07-29T12:44:53;26.80;95.40
4433;DHT22;2229;48.708;9.706;2023-07-29T12:47:21;26.80;95.50
4433;DHT22;2229;48.708;9.706;2023-07-29T12:49:50;26.70;95.60
4433;DHT22;2229;48.708;9.706;2023-07-29T12:52:17;26.60;95.70
4433;DHT22;2229;48.708;9.706;2023-07-29T12:54:44;26.60;95.90
4433;DHT22;2229;48.708;9.706;2023-07-29T12:57:11;26.50;95.90
4433;DHT22;2229;48.708;9.706;2023-07-29T12:59:38;26.40;95.80
4433;DHT22;2229;48.708;9.706;2023-07-29T13:02:06;26.20;95.80
4433;DHT22;2229;48.708;9.706;2023-07-29T13:04:34;26.00;96.00
4433;DHT22;2229;48.708;9.706;2023-07-29T13:07:02;25.90;96.40
4433;DHT22;2229;48.708;9.706;2023-07-29T13:09:29;25.70;96.70
4433;DHT22;2229;48.708;9.706;2023-07-29T13:11:56;25.60;96.80
4433;DHT22;2229;48.708;9.706;2023-07-29T13:14:23;25.50;96.70
4433;DHT22;2229;48.708;9.706;2023-07-29T13:16:52;25.40;96.50
4433;DHT22;2229;48.708;9.706;2023-07-29T13:19:19;25.30;96.30
4433;DHT22;2229;48.708;9.706;2023-07-29T13:21:47;25.30;96.30
4433;DHT22;2229;48.708;9.706;2023-07-29T13:24:15;25.20;96.20
4433;DHT22;2229;48.708;9.706;2023-07-29T13:26:42;25.10;96.20
4433;DHT22;2229;48.708;9.706;2023-07-29T13:29:09;25.10;96.10
4433;DHT22;2229;48.708;9.706;2023-07-29T13:31:36;25.20;96.10
4433;DHT22;2229;48.708;9.706;2023-07-29T13:34:04;25.30;96.10
4433;DHT22;2229;48.708;9.706;2023-07-29T13:36:31;25.40;96.20
4433;DHT22;2229;48.708;9.706;2023-07-29T13:38:59;25.60;96.10
4433;DHT22;2229;48.708;9.706;2023-07-29T13:41:26;25.80;95.50
4433;DHT22;2229;48.708;9.706;2023-07-29T13:43:54;25.80;94.20
4433;DHT22;2229;48.708;9.706;2023-07-29T13:46:21;25.80;93.10
4433;DHT22;2229;48.708;9.706;2023-07-29T13:48:48;25.70;91.50
4433;DHT22;2229;48.708;9.706;2023-07-29T13:51:15;25.60;90.90
4433;DHT22;2229;48.708;9.706;2023-07-29T13:53:43;25.60;91.00
4433;DHT22;2229;48.708;9.706;2023-07-29T13:56:11;25.60;90.80
4433;DHT22;2229;48.708;9.706;2023-07-29T13:58:39;25.50;90.70
4433;DHT22;2229;48.708;9.706;2023-07-29T14:01:06;25.50;90.70
4433;DHT22;2229;48.708;9.706;2023-07-29T14:03:33;25.50;90.90
4433;DHT22;2229;48.708;9.706;2023-07-29T14:06:00;25.50;91.10
4433;DHT22;2229;48.708;9.706;2023-07-29T14:08:28;25.60;91.10
4433;DHT22;2229;48.708;9.706;2023-07-29T14:10:55;25.70;91.60
4433;DHT22;2229;48.708;9.706;2023-07-29T14:13:24;25.70;91.50
4433;DHT22;2229;48.708;9.706;2023-07-29T14:15:52;25.80;91.30
4433;DHT22;2229;48.708;9.706;2023-07-29T14:18:19;25.90;91.20
4433;DHT22;2229;48.708;9.706;2023-07-29T14:20:46;26.00;90.10
4433;DHT22;2229;48.708;9.706;2023-07-29T14:23:14;26.00;89.10
4433;DHT22;2229;48.708;9.706;2023-07-29T14:25:41;25.90;87.80
4433;DHT22;2229;48.708;9.706;2023-07-29T14:28:08;25.90;87.70
4433;DHT22;2229;48.708;9.706;2023-07-29T14:30:37;25.90;88.60
4433;DHT22;2229;48.708;9.706;2023-07-29T14:33:07;26.00;87.30
4433;DHT22;2229;48.708;9.706;2023-07-29T14:35:34;25.90;87.40
4433;DHT22;2229;48.708;9.706;2023-07-29T14:38:01;25.90;87.30
4433;DHT22;2229;48.708;9.706;2023-07-29T14:40:28;25.90;86.60
4433;DHT22;2229;48.708;9.706;2023-07-29T14:42:55;26.00;86.50
4433;DHT22;2229;48.708;9.706;2023-07-29T14:45:22;26.00;85.60
4433;DHT22;2229;48.708;9.706;2023-07-29T14:47:51;26.20;85.70
4433;DHT22;2229;48.708;9.706;2023-07-29T14:50:20;26.30;85.10
4433;DHT22;2229;48.708;9.706;2023-07-29T14:52:49;26.50;82.70
4433;DHT22;2229;48.708;9.706;2023-07-29T14:55:16;26.70;82.90
4433;DHT22;2229;48.708;9.706;2023-07-29T14:57:44;26.80;81.60
4433;DHT22;2229;48.708;9.706;2023-07-29T15:00:12;27.00;81.30
4433;DHT22;2229;48.708;9.706;2023-07-29T15:02:40;27.20;79.50
4433;DHT22;2229;48.708;9.706;2023-07-29T15:05:09;27.30;78.70
4433;DHT22;2229;48.708;9.706;2023-07-29T15:07:36;27.20;77.70
4433;DHT22;2229;48.708;9.706;2023-07-29T15:10:05;27.20;77.00
4433;DHT22;2229;48.708;9.706;2023-07-29T15:12:32;27.00;76.10
4433;DHT22;2229;48.708;9.706;2023-07-29T15:15:00;26.80;76.60
4433;DHT22;2229;48.708;9.706;2023-07-29T15:17:28;26.60;77.10
4433;DHT22;2229;48.708;9.706;2023-07-29T15:19:55;26.50;78.50
4433;DHT22;2229;48.708;9.706;2023-07-29T15:22:24;26.50;79.30
4433;DHT22;2229;48.708;9.706;2023-07-29T15:24:51;26.50;78.30
4433;DHT22;2229;48.708;9.706;2023-07-29T15:27:18;26.40;78.80
4433;DHT22;2229;48.708;9.706;2023-07-29T15:29:45;26.40;78.80
4433;DHT22;2229;48.708;9.706;2023-07-29T15:32:12;26.30;78.10
4433;DHT22;2229;48.708;9.706;2023-07-29T15:34:39;26.30;77.80
4433;DHT22;2229;48.708;9.706;2023-07-29T15:37:07;26.30;77.60
4433;DHT22;2229;48.708;9.706;2023-07-29T15:39:36;26.20;77.60
4433;DHT22;2229;48.708;9.706;2023-07-29T15:42:04;26.10;78.10
4433;DHT22;2229;48.708;9.706;2023-07-29T15:44:31;26.00;78.80
4433;DHT22;2229;48.708;9.706;2023-07-29T15:46:58;26.00;79.20
4433;DHT22;2229;48.708;9.706;2023-07-29T15:49:25;26.00;79.10
4433;DHT22;2229;48.708;9.706;2023-07-29T15:51:52;25.90;79.30
4433;DHT22;2229;48.708;9.706;2023-07-29T15:54:20;25.80;80.20
4433;DHT22;2229;48.708;9.706;2023-07-29T15:56:49;25.80;80.60
4433;DHT22;2229;48.708;9.706;2023-07-29T15:59:17;25.80;81.40
4433;DHT22;2229;48.708;9.706;2023-07-29T16:01:44;25.80;81.40
4433;DHT22;2229;48.708;9.706;2023-07-29T16:04:11;25.80;81.30
4433;DHT22;2229;48.708;9.706;2023-07-29T16:06:38;25.90;81.40
4433;DHT22;2229;48.708;9.706;2023-07-29T16:09:05;25.90;81.20
4433;DHT22;2229;48.708;9.706;2023-07-29T16:11:33;26.00;81.40
4433;DHT22;2229;48.708;9.706;2023-07-29T16:14:01;25.90;81.00